FMEE/RUN METAR and TAF weather

Enter ICAO airport designator
Station Type Date Time Source
FMEE METAR 2019/08/22 03:00 UTC NOAA

FMEE 220300Z AUTO 19004KT 9999 BKN028 BKN040 BKN046 21/18 Q1020 BECMG 08010KT


Station Type Date Time Source
FMEE Decoded METAR 2019/08/22 03:00 UTC NOAA

Station name not available
Aug 21, 2019 - 11:00 PM EDT / 2019.08.22 0300 UTC
Wind: from the S (190 degrees) at 5 MPH (4 KT):0
Visibility: greater than 7 mile(s):0
Sky conditions: mostly cloudy
Temperature: 69 F (21 C)
Dew Point: 64 F (18 C)
Relative Humidity: 82%
Pressure (altimeter): 30.12 in. Hg (1020 hPa)
ob: FMEE 220300Z AUTO 19004KT 9999 BKN028 BKN040 BKN046 21/18 Q1020 BECMG 08010KT
cycle: 3

Station Type Date Time Source
FMEE TAF 2019/08/22 00:00 UTC NOAA

TAF FMEE 212300Z 2200/2306 17006KT 9999 FEW030 BKN120
BECMG 2204/2206 08010KT PROB30
TEMPO 2208/2216 4000 SHRA
BECMG 2216/2218 16008KT
BECMG 2304/2306 07010KT

Example: see airport list